Time;durP1;ratioP1;P1;durP2;ratioP2;P2;SDS_P1;SDS_P2;PMS_P1;PMS_P2;Temp;Humidity;BMP_temperature;BMP_pressure;BME280_temperature;BME280_humidity;BME280_pressure;Samples;Min_cycle;Max_cycle;Signal;HPM_P1;HPM_P2
2021/06/18 00:02:07;;;;;;;0.00;0.00;;;22.50;64.40;;;;;;5055560;28;20024;-74
2021/06/18 00:04:33;;;;;;;0.00;0.00;;;22.30;65.10;;;;;;5037852;28;20025;-74
2021/06/18 00:06:59;;;;;;;0.20;0.20;;;22.20;65.40;;;;;;5037595;28;20048;-74
2021/06/18 00:09:25;;;;;;;0.10;0.10;;;22.30;65.50;;;;;;5055390;28;20025;-74
2021/06/18 00:11:51;;;;;;;0.03;0.03;;;22.20;66.00;;;;;;5055346;28;20484;-74
2021/06/18 00:14:17;;;;;;;0.10;0.10;;;22.10;66.20;;;;;;5037497;28;20528;-74
2021/06/18 00:16:42;;;;;;;0.10;0.10;;;22.20;66.20;;;;;;5037595;28;20029;-74
2021/06/18 00:19:08;;;;;;;0.03;0.03;;;22.20;66.00;;;;;;5037018;28;20086;-74
2021/06/18 00:21:34;;;;;;;0.20;0.20;;;22.30;65.80;;;;;;5055202;28;20021;-74
2021/06/18 00:23:59;;;;;;;3.83;1.30;;;22.20;66.20;;;;;;5037504;28;20029;-74
2021/06/18 00:26:25;;;;;;;0.20;0.20;;;22.20;65.90;;;;;;5037180;28;20478;-74
2021/06/18 00:28:51;;;;;;;0.20;0.20;;;22.20;66.00;;;;;;5037059;28;20032;-74
2021/06/18 00:31:17;;;;;;;0.25;0.25;;;22.00;66.80;;;;;;5020701;28;20029;-73
2021/06/18 00:33:43;;;;;;;1.20;1.10;;;21.80;67.40;;;;;;5020689;28;20025;-73
2021/06/18 00:36:09;;;;;;;0.63;0.63;;;21.50;68.20;;;;;;5055016;28;20036;-74
2021/06/18 00:38:35;;;;;;;0.30;0.30;;;21.30;69.10;;;;;;5054805;28;20110;-73
2021/06/18 00:41:01;;;;;;;0.10;0.10;;;21.30;69.40;;;;;;5036963;28;20036;-74
2021/06/18 00:43:26;;;;;;;0.10;0.10;;;21.30;69.30;;;;;;5020457;28;20370;-74
2021/06/18 00:45:52;;;;;;;0.10;0.10;;;21.50;69.20;;;;;;5037047;28;20110;-74
2021/06/18 00:48:21;;;;;;;0.10;0.10;;;21.70;68.00;;;;;;5054642;28;20476;-74
2021/06/18 00:50:48;;;;;;;0.20;0.20;;;21.70;68.90;;;;;;5020320;28;20025;-74
2021/06/18 00:53:14;;;;;;;0.10;0.10;;;21.60;68.20;;;;;;5054670;28;20057;-74
2021/06/18 00:55:40;;;;;;;0.00;0.00;;;21.80;67.80;;;;;;5036919;28;20025;-74
2021/06/18 00:58:07;;;;;;;0.55;0.55;;;21.70;68.20;;;;;;5036402;28;20082;-74
2021/06/18 01:00:33;;;;;;;0.10;0.10;;;21.70;68.10;;;;;;5035225;28;20374;-74
2021/06/18 01:02:59;;;;;;;0.15;0.15;;;21.60;68.10;;;;;;5020028;28;20028;-74
2021/06/18 01:05:26;;;;;;;0.10;0.10;;;21.60;68.50;;;;;;5036588;28;20056;-74
2021/06/18 01:07:52;;;;;;;0.57;0.57;;;21.40;69.20;;;;;;5054273;28;20065;-74
2021/06/18 01:10:35;;;;;;;0.10;0.10;;;21.30;69.80;;;;;;5036524;28;20075;-74
2021/06/18 01:13:26;;;;;;;0.10;0.10;;;21.40;69.60;;;;;;5054473;28;20036;-74
2021/06/18 01:16:03;;;;;;;0.10;0.10;;;21.50;69.70;;;;;;5036356;28;20021;-74
2021/06/18 01:18:38;;;;;;;0.10;0.10;;;21.20;70.50;;;;;;5053971;28;20028;-74
2021/06/18 01:21:41;;;;;;;1.45;1.10;;;21.10;71.40;;;;;;5036460;28;20013;-74
2021/06/18 01:24:34;;;;;;;0.10;0.10;;;20.90;71.70;;;;;;5036330;28;20028;-74
2021/06/18 01:27:24;;;;;;;0.75;0.50;;;20.90;72.30;;;;;;5036131;28;20021;-73
2021/06/18 01:29:54;;;;;;;0.13;0.13;;;20.80;72.40;;;;;;5054013;28;20025;-73
2021/06/18 01:32:28;;;;;;;0.40;0.40;;;20.60;73.40;;;;;;5053978;28;20063;-74
2021/06/18 01:34:56;;;;;;;0.08;0.08;;;20.60;73.70;;;;;;5053984;28;20558;-73
2021/06/18 01:37:26;;;;;;;0.40;0.40;;;20.80;73.20;;;;;;5053819;28;20468;-73
2021/06/18 01:39:54;;;;;;;0.95;0.70;;;20.70;73.30;;;;;;5053803;28;20042;-73
2021/06/18 01:42:22;;;;;;;0.32;0.30;;;20.50;73.70;;;;;;5035794;28;20036;-74
2021/06/18 01:44:48;;;;;;;0.20;0.20;;;20.40;74.40;;;;;;5053785;28;20495;-74
2021/06/18 01:47:16;;;;;;;0.82;0.82;;;20.40;75.00;;;;;;5019214;28;20021;-73
2021/06/18 01:49:43;;;;;;;0.15;0.15;;;20.40;75.10;;;;;;5035899;28;20029;-73
2021/06/18 01:52:11;;;;;;;0.40;0.40;;;20.20;75.70;;;;;;5053687;28;20476;-74
2021/06/18 01:54:39;;;;;;;0.20;0.20;;;20.30;75.90;;;;;;5053548;28;20522;-74
2021/06/18 01:57:07;;;;;;;0.10;0.10;;;20.20;75.60;;;;;;5035578;28;20029;-74
2021/06/18 01:59:35;;;;;;;0.10;0.10;;;20.30;74.70;;;;;;5053217;28;20103;-73
2021/06/18 02:02:04;;;;;;;0.57;0.57;;;20.40;74.60;;;;;;5053215;28;20043;-74
2021/06/18 02:04:32;;;;;;;0.20;0.20;;;20.40;74.40;;;;;;5019067;28;20112;-74
2021/06/18 02:06:58;;;;;;;0.10;0.10;;;20.50;74.20;;;;;;5035454;28;20025;-74
2021/06/18 02:09:26;;;;;;;0.10;0.10;;;20.60;73.80;;;;;;5053204;28;20025;-74
2021/06/18 02:11:54;;;;;;;0.10;0.10;;;20.50;73.70;;;;;;5018342;28;20035;-74
2021/06/18 02:14:21;;;;;;;0.10;0.10;;;20.60;74.10;;;;;;5053109;28;20071;-74
2021/06/18 02:16:59;;;;;;;0.10;0.10;;;20.70;73.30;;;;;;5053141;28;20050;-74
2021/06/18 02:19:25;;;;;;;0.10;0.10;;;20.90;72.70;;;;;;5052783;28;20374;-73
2021/06/18 02:21:54;;;;;;;0.00;0.00;;;21.10;71.90;;;;;;5035317;28;20025;-73
2021/06/18 02:24:24;;;;;;;0.55;0.55;;;21.10;71.40;;;;;;5052903;28;20036;-74
2021/06/18 02:26:52;;;;;;;0.10;0.10;;;20.90;71.60;;;;;;5052859;28;20025;-74
2021/06/18 02:29:18;;;;;;;0.57;0.57;;;20.70;72.90;;;;;;5034996;28;20374;-73
2021/06/18 02:31:46;;;;;;;1.10;0.50;;;20.40;73.40;;;;;;5052752;28;20028;-74
2021/06/18 02:34:12;;;;;;;0.45;0.45;;;20.30;74.00;;;;;;5035176;28;20076;-74
2021/06/18 02:36:39;;;;;;;0.75;0.75;;;20.20;74.70;;;;;;5034788;28;20492;-73
2021/06/18 02:39:07;;;;;;;1.17;1.08;;;20.10;75.00;;;;;;5052442;28;20507;-73
2021/06/18 02:41:33;;;;;;;1.27;1.17;;;19.90;75.80;;;;;;5052574;28;20028;-73
2021/06/18 02:44:02;;;;;;;0.10;0.10;;;19.70;76.60;;;;;;5052624;28;20021;-73
2021/06/18 02:46:44;;;;;;;10.95;0.57;;;19.60;77.70;;;;;;5034729;28;20029;-74
2021/06/18 02:49:15;;;;;;;1.77;1.38;;;19.60;77.90;;;;;;5034500;28;20087;-73
2021/06/18 02:51:48;;;;;;;1.23;1.13;;;19.50;78.10;;;;;;5052342;28;20420;-73
2021/06/18 02:54:37;;;;;;;0.38;0.38;;;19.40;78.80;;;;;;5052535;28;20024;-73
2021/06/18 02:57:30;;;;;;;1.20;1.13;;;19.50;78.70;;;;;;5052265;28;20037;-74
2021/06/18 03:00:01;;;;;;;0.20;0.20;;;19.50;78.60;;;;;;5014764;28;20456;-73
2021/06/18 03:02:35;;;;;;;0.50;0.50;;;19.50;78.70;;;;;;5052311;28;20021;-74
2021/06/18 03:05:06;;;;;;;2.33;1.17;;;19.50;78.40;;;;;;5052214;28;20473;-73
2021/06/18 03:07:34;;;;;;;2.10;1.05;;;19.50;78.50;;;;;;5052117;28;20469;-74
2021/06/18 03:10:06;;;;;;;0.32;0.30;;;19.50;78.80;;;;;;5034262;28;20029;-74
2021/06/18 03:12:33;;;;;;;0.55;0.52;;;19.60;78.40;;;;;;5052039;28;20116;-74
2021/06/18 03:15:08;;;;;;;0.10;0.10;;;19.80;77.40;;;;;;5034353;28;20029;-74
2021/06/18 03:17:39;;;;;;;0.10;0.10;;;20.00;76.90;;;;;;5034026;28;20024;-74
2021/06/18 03:20:10;;;;;;;0.28;0.28;;;20.20;75.80;;;;;;5017600;28;20083;-74
2021/06/18 03:22:37;;;;;;;1.85;0.75;;;20.10;76.40;;;;;;5033334;28;20025;-74
2021/06/18 03:25:04;;;;;;;0.08;0.08;;;20.10;76.90;;;;;;5034263;28;20021;-74
2021/06/18 03:27:32;;;;;;;0.10;0.10;;;20.00;76.80;;;;;;5033993;28;20025;-74
2021/06/18 03:29:58;;;;;;;0.10;0.10;;;20.00;77.50;;;;;;5051849;28;20056;-74
2021/06/18 03:32:25;;;;;;;0.10;0.10;;;20.10;77.00;;;;;;5051858;28;20047;-74
2021/06/18 03:34:52;;;;;;;0.10;0.10;;;20.20;77.10;;;;;;5051740;28;20013;-74
2021/06/18 03:37:19;;;;;;;0.10;0.10;;;20.40;75.80;;;;;;5017349;28;20056;-73
2021/06/18 03:39:46;;;;;;;0.00;0.00;;;20.60;75.10;;;;;;5017446;28;20116;-73
2021/06/18 03:42:12;;;;;;;0.10;0.10;;;20.80;74.20;;;;;;5033975;28;20036;-74
2021/06/18 03:44:38;;;;;;;27.08;16.48;;;20.90;73.70;;;;;;5052183;28;20380;-74
2021/06/18 03:47:06;;;;;;;0.10;0.10;;;21.00;73.30;;;;;;5051677;28;20025;-74
2021/06/18 03:49:32;;;;;;;0.47;0.30;;;21.00;73.10;;;;;;5051499;28;20048;-74
2021/06/18 03:51:59;;;;;;;0.10;0.10;;;21.00;72.50;;;;;;5033696;28;20025;-74
2021/06/18 03:54:25;;;;;;;1.00;0.73;;;21.00;72.50;;;;;;5033927;28;20032;-74
2021/06/18 03:56:52;;;;;;;0.05;0.05;;;21.10;72.30;;;;;;5051672;28;20091;-74
2021/06/18 03:59:19;;;;;;;0.10;0.10;;;21.00;72.50;;;;;;5033663;28;20065;-74
2021/06/18 04:01:50;;;;;;;0.10;0.10;;;20.80;73.60;;;;;;5051352;28;20112;-74
2021/06/18 04:04:18;;;;;;;0.10;0.10;;;20.70;73.90;;;;;;5033748;28;20112;-74
2021/06/18 04:06:44;;;;;;;0.30;0.30;;;20.70;74.20;;;;;;5033705;28;20107;-73
2021/06/18 04:09:11;;;;;;;0.70;0.70;;;20.80;74.40;;;;;;5033761;28;20036;-74
2021/06/18 04:11:38;;;;;;;0.10;0.10;;;20.70;74.30;;;;;;5051890;28;20139;-74
2021/06/18 04:14:05;;;;;;;0.80;0.73;;;20.70;74.90;;;;;;5017140;28;20505;-74
2021/06/18 04:16:31;;;;;;;0.17;0.17;;;20.60;75.30;;;;;;5051285;28;20029;-73
2021/06/18 04:18:57;;;;;;;0.10;0.10;;;20.60;75.60;;;;;;5016749;28;20040;-73
2021/06/18 04:21:24;;;;;;;0.10;0.10;;;20.70;75.30;;;;;;5051256;28;20067;-73
2021/06/18 04:23:50;;;;;;;0.10;0.10;;;20.60;75.30;;;;;;5016986;28;20472;-73
2021/06/18 04:26:19;;;;;;;0.10;0.10;;;20.70;75.70;;;;;;5033446;28;20025;-73
2021/06/18 04:28:44;;;;;;;0.10;0.10;;;20.50;76.10;;;;;;5033358;28;20036;-73
2021/06/18 04:31:10;;;;;;;0.10;0.10;;;20.70;76.00;;;;;;5051359;28;20481;-73
2021/06/18 04:33:36;;;;;;;0.70;0.70;;;20.80;76.10;;;;;;5034031;28;20476;-74
2021/06/18 04:36:03;;;;;;;1.55;0.38;;;20.80;76.30;;;;;;5037249;28;20025;-74
2021/06/18 04:38:28;;;;;;;0.15;0.15;;;20.80;76.20;;;;;;5020360;28;20052;-73
2021/06/18 04:40:54;;;;;;;0.17;0.17;;;21.00;76.30;;;;;;5054709;28;20017;-73
2021/06/18 04:43:20;;;;;;;2.80;0.63;;;21.10;75.60;;;;;;5054718;28;20033;-73
2021/06/18 04:45:46;;;;;;;0.25;0.25;;;21.10;75.70;;;;;;5054736;28;20082;-73
2021/06/18 04:48:13;;;;;;;0.10;0.10;;;21.30;75.70;;;;;;5036778;28;20037;-73
2021/06/18 04:50:39;;;;;;;0.10;0.10;;;21.30;75.40;;;;;;5036742;28;20025;-74
2021/06/18 04:53:10;;;;;;;0.20;0.20;;;21.50;75.40;;;;;;5054526;28;20443;-74
2021/06/18 04:55:37;;;;;;;2.28;1.38;;;21.40;75.50;;;;;;5020105;28;20036;-74
2021/06/18 04:58:02;;;;;;;0.32;0.32;;;21.60;75.80;;;;;;5054267;28;20029;-74
2021/06/18 05:00:28;;;;;;;1.45;1.25;;;21.70;75.50;;;;;;5036598;28;20038;-74
2021/06/18 05:02:54;;;;;;;1.20;1.10;;;21.80;74.70;;;;;;5054454;28;20029;-74
2021/06/18 05:05:20;;;;;;;0.20;0.20;;;21.80;74.10;;;;;;5054548;28;20036;-74
2021/06/18 05:07:46;;;;;;;0.68;0.68;;;21.90;73.50;;;;;;5054132;28;20036;-74
2021/06/18 05:10:12;;;;;;;4.45;0.95;;;22.00;72.70;;;;;;5036329;28;20029;-73
2021/06/18 05:12:38;;;;;;;0.80;0.75;;;22.00;72.80;;;;;;5054418;28;20021;-73
2021/06/18 05:15:04;;;;;;;12.25;1.75;;;22.00;74.40;;;;;;5019925;28;20477;-73
2021/06/18 05:17:30;;;;;;;4.25;1.77;;;22.00;73.90;;;;;;5053872;28;20300;-74
2021/06/18 05:19:56;;;;;;;2.20;2.00;;;22.00;72.90;;;;;;5036283;28;20037;-73
2021/06/18 05:22:22;;;;;;;0.10;0.10;;;21.80;73.50;;;;;;5018625;28;20013;-73
2021/06/18 05:24:48;;;;;;;1.02;0.98;;;21.90;73.70;;;;;;5043251;28;20017;-74
2021/06/18 05:27:13;;;;;;;0.22;0.22;;;22.00;73.60;;;;;;5056741;28;20104;-74
2021/06/18 05:29:39;;;;;;;0.10;0.10;;;22.10;73.50;;;;;;5052934;28;20040;-74
2021/06/18 05:32:06;;;;;;;0.90;0.88;;;22.30;73.80;;;;;;5035146;28;20061;-74
2021/06/18 05:34:31;;;;;;;0.10;0.10;;;22.40;72.30;;;;;;5037313;28;20028;-73
2021/06/18 05:36:57;;;;;;;1.63;1.52;;;22.60;71.50;;;;;;5051974;28;20079;-75
2021/06/18 05:39:23;;;;;;;0.22;0.22;;;22.70;70.80;;;;;;5033904;28;20032;-74
2021/06/18 05:41:49;;;;;;;0.00;0.00;;;22.80;70.40;;;;;;5017295;28;20025;-74
2021/06/18 05:44:14;;;;;;;1.48;1.45;;;22.90;70.00;;;;;;5033494;28;20040;-73
2021/06/18 05:46:40;;;;;;;0.30;0.30;;;23.10;69.90;;;;;;5035900;28;20037;-73
2021/06/18 05:49:06;;;;;;;0.55;0.55;;;23.20;69.00;;;;;;5032860;28;20033;-74
2021/06/18 05:51:32;;;;;;;0.00;0.00;;;23.10;68.90;;;;;;5049342;28;20020;-74
2021/06/18 05:53:58;;;;;;;0.40;0.40;;;23.20;68.80;;;;;;5017529;28;20053;-73
2021/06/18 05:56:24;;;;;;;0.65;0.65;;;23.30;67.00;;;;;;5050590;28;20055;-73
2021/06/18 05:58:50;;;;;;;0.40;0.40;;;23.20;67.40;;;;;;5035642;28;20057;-73
2021/06/18 06:01:15;;;;;;;0.43;0.43;;;23.20;67.30;;;;;;5028330;28;20021;-74
2021/06/18 06:03:41;;;;;;;0.75;0.45;;;23.40;68.40;;;;;;5053045;28;20033;-74
2021/06/18 06:06:11;;;;;;;0.00;0.00;;;23.50;69.70;;;;;;5036315;28;20121;-74
2021/06/18 06:08:38;;;;;;;0.10;0.10;;;23.50;69.90;;;;;;5033640;28;20515;-74
2021/06/18 06:11:04;;;;;;;0.10;0.10;;;23.60;69.80;;;;;;5051703;28;20100;-73
2021/06/18 06:13:30;;;;;;;0.03;0.03;;;23.70;69.60;;;;;;5052704;28;20029;-73
2021/06/18 06:15:56;;;;;;;0.10;0.10;;;23.80;69.10;;;;;;5055817;28;20031;-74
2021/06/18 06:18:22;;;;;;;0.73;0.73;;;23.90;69.20;;;;;;5033802;28;20029;-73
2021/06/18 06:20:49;;;;;;;0.00;0.00;;;23.90;69.10;;;;;;5049591;28;20029;-74
2021/06/18 06:23:15;;;;;;;0.00;0.00;;;24.00;69.00;;;;;;5032286;28;20021;-74
2021/06/18 06:25:41;;;;;;;5.38;3.20;;;24.10;64.60;;;;;;5048034;28;20029;-74
2021/06/18 06:28:08;;;;;;;0.00;0.00;;;24.20;63.40;;;;;;5051878;28;20036;-74
2021/06/18 06:30:34;;;;;;;0.00;0.00;;;24.30;62.40;;;;;;5050154;28;20021;-73
2021/06/18 06:33:01;;;;;;;0.52;0.43;;;24.40;61.70;;;;;;5053852;28;20028;-73
2021/06/18 06:35:27;;;;;;;3.60;1.95;;;24.30;62.00;;;;;;5051275;28;20029;-74
2021/06/18 06:37:54;;;;;;;1.67;1.55;;;24.40;62.40;;;;;;5046834;28;20031;-74
2021/06/18 06:40:22;;;;;;;3.65;3.35;;;24.60;60.90;;;;;;5032952;28;20174;-74
2021/06/18 06:42:48;;;;;;;0.10;0.10;;;24.80;61.00;;;;;;5051650;28;20670;-74
2021/06/18 06:45:14;;;;;;;0.00;0.00;;;25.10;61.00;;;;;;5051021;28;20110;-74
2021/06/18 06:47:40;;;;;;;0.25;0.25;;;25.30;60.90;;;;;;5050014;28;20032;-74
2021/06/18 06:50:08;;;;;;;0.00;0.00;;;25.30;60.20;;;;;;5046099;28;20452;-74
2021/06/18 06:52:33;;;;;;;0.00;0.00;;;25.40;59.20;;;;;;5032354;28;20122;-75
2021/06/18 06:54:59;;;;;;;0.03;0.03;;;25.50;59.20;;;;;;5032724;28;20203;-74
2021/06/18 06:57:25;;;;;;;2.13;1.15;;;25.70;58.60;;;;;;5057330;28;20070;-75
2021/06/18 06:59:51;;;;;;;0.38;0.38;;;25.60;57.50;;;;;;5016268;28;20021;-75
2021/06/18 07:02:17;;;;;;;0.00;0.00;;;25.60;57.80;;;;;;5032203;28;20143;-76
2021/06/18 07:04:42;;;;;;;0.22;0.22;;;25.80;58.10;;;;;;5028582;28;20035;-75
2021/06/18 07:07:08;;;;;;;0.00;0.00;;;26.00;57.70;;;;;;5048981;28;20045;-75
2021/06/18 07:09:38;;;;;;;0.28;0.28;;;26.20;57.30;;;;;;5053614;28;20032;-76
2021/06/18 07:12:08;;;;;;;0.00;0.00;;;26.40;56.70;;;;;;5050856;28;20027;-76
2021/06/18 07:14:39;;;;;;;0.15;0.15;;;26.50;55.10;;;;;;5015829;28;20033;-75
2021/06/18 07:17:05;;;;;;;;;;;26.60;53.70;;;;;;5033159;28;20029;-75
2021/06/18 07:19:32;;;;;;;0.00;0.00;;;26.70;53.70;;;;;;5034248;28;19915;-75
2021/06/18 07:21:58;;;;;;;0.10;0.10;;;26.70;54.10;;;;;;5016087;28;20111;-76
2021/06/18 07:24:24;;;;;;;0.00;0.00;;;26.80;53.50;;;;;;5015733;28;20090;-76
2021/06/18 07:26:49;;;;;;;0.28;0.28;;;26.90;53.30;;;;;;5049028;28;20470;-75
2021/06/18 07:29:15;;;;;;;0.00;0.00;;;26.90;52.90;;;;;;5049794;28;20052;-76
2021/06/18 07:31:42;;;;;;;0.00;0.00;;;26.90;53.70;;;;;;5032872;28;20408;-75
2021/06/18 07:34:09;;;;;;;0.10;0.10;;;27.00;53.20;;;;;;5018831;28;20021;-75
2021/06/18 07:36:35;;;;;;;0.40;0.40;;;27.10;52.90;;;;;;5029450;28;20017;-75
2021/06/18 07:39:06;;;;;;;0.00;0.00;;;27.10;52.40;;;;;;5049754;28;20025;-75
2021/06/18 07:41:32;;;;;;;0.52;0.52;;;27.00;52.70;;;;;;5049884;28;20025;-75
2021/06/18 07:43:58;;;;;;;4.10;0.90;;;27.10;52.60;;;;;;5032039;28;20071;-75
2021/06/18 07:46:26;;;;;;;0.00;0.00;;;27.00;52.50;;;;;;5031395;28;20055;-75
2021/06/18 07:48:52;;;;;;;1.45;1.05;;;27.10;53.00;;;;;;5050188;28;20376;-76
2021/06/18 07:51:18;;;;;;;0.20;0.20;;;27.30;51.40;;;;;;5014936;28;20025;-75
2021/06/18 07:53:44;;;;;;;0.10;0.10;;;27.20;51.40;;;;;;5050051;28;20017;-76
2021/06/18 07:56:10;;;;;;;0.22;0.22;;;27.50;52.10;;;;;;5051316;28;20017;-75
2021/06/18 07:58:39;;;;;;;0.00;0.00;;;27.60;51.10;;;;;;5031931;28;20033;-75
2021/06/18 08:01:06;;;;;;;0.00;0.00;;;27.80;51.30;;;;;;5048486;28;20122;-75
2021/06/18 08:03:32;;;;;;;0.17;0.17;;;28.10;50.80;;;;;;5030881;28;20368;-75
2021/06/18 08:05:58;;;;;;;1.17;0.80;;;28.10;50.30;;;;;;5031158;28;20021;-75
2021/06/18 08:08:24;;;;;;;0.15;0.15;;;28.20;50.80;;;;;;5051828;28;20044;-75
2021/06/18 08:10:50;;;;;;;1.00;0.95;;;28.50;50.70;;;;;;5035710;28;20025;-75
2021/06/18 08:13:15;;;;;;;0.00;0.00;;;28.40;49.60;;;;;;5053481;28;20027;-75
2021/06/18 08:15:41;;;;;;;0.05;0.05;;;28.60;49.60;;;;;;5053405;28;20025;-76
2021/06/18 08:18:07;;;;;;;0.00;0.00;;;28.70;50.70;;;;;;5053323;28;20366;-75
2021/06/18 08:20:34;;;;;;;0.00;0.00;;;28.80;49.30;;;;;;5035393;28;20017;-76
2021/06/18 08:22:59;;;;;;;0.10;0.10;;;29.20;49.20;;;;;;5018786;28;20429;-76
2021/06/18 08:25:25;;;;;;;0.00;0.00;;;29.20;49.20;;;;;;5053549;28;20108;-76
2021/06/18 08:27:51;;;;;;;0.00;0.00;;;29.50;49.70;;;;;;5035920;28;20061;-75
2021/06/18 08:30:18;;;;;;;0.80;0.52;;;29.90;49.80;;;;;;5018265;28;20039;-76
2021/06/18 08:32:43;;;;;;;0.30;0.10;;;29.60;48.20;;;;;;5041270;28;20104;-76
2021/06/18 08:35:09;;;;;;;0.10;0.10;;;29.60;49.30;;;;;;5019128;28;20116;-75
2021/06/18 08:37:35;;;;;;;0.25;0.25;;;29.70;49.00;;;;;;5052872;28;20029;-75
2021/06/18 08:40:02;;;;;;;0.43;0.20;;;29.80;49.50;;;;;;5053713;28;20033;-76
2021/06/18 08:42:28;;;;;;;0.15;0.15;;;29.90;48.30;;;;;;5034454;28;20021;-76
2021/06/18 08:44:54;;;;;;;1.15;0.98;;;29.60;48.30;;;;;;5035669;28;20049;-75
2021/06/18 08:47:20;;;;;;;0.08;0.08;;;29.70;48.40;;;;;;5053048;28;20108;-75
2021/06/18 08:49:46;;;;;;;0.00;0.00;;;29.90;48.90;;;;;;5034827;28;20115;-75
2021/06/18 08:52:12;;;;;;;0.85;0.60;;;30.00;48.10;;;;;;5054560;28;20104;-76
2021/06/18 08:54:43;;;;;;;0.00;0.00;;;29.90;47.70;;;;;;5035549;28;20116;-76
2021/06/18 08:57:20;;;;;;;0.63;0.60;;;30.30;48.60;;;;;;5034510;28;20033;-75
2021/06/18 08:59:47;;;;;;;0.32;0.32;;;30.30;47.30;;;;;;5035494;28;20027;-75
2021/06/18 09:02:15;;;;;;;0.35;0.35;;;30.50;48.00;;;;;;5035186;28;20017;-76
2021/06/18 09:05:05;;;;;;;0.45;0.40;;;30.90;46.90;;;;;;5053876;28;20021;-76
2021/06/18 09:07:58;;;;;;;0.10;0.10;;;31.00;45.70;;;;;;5017970;28;20021;-75
2021/06/18 09:10:43;;;;;;;0.00;0.00;;;30.90;45.80;;;;;;5051635;28;20029;-75
2021/06/18 09:13:08;;;;;;;0.10;0.10;;;31.20;47.00;;;;;;5034730;28;20075;-76
2021/06/18 09:15:35;;;;;;;1.10;1.00;;;31.50;45.50;;;;;;5035214;28;20021;-76
2021/06/18 09:18:23;;;;;;;0.00;0.00;;;31.50;44.80;;;;;;5034371;28;20060;-76
2021/06/18 09:20:50;;;;;;;0.00;0.00;;;31.90;44.90;;;;;;5031773;28;20025;-75
2021/06/18 09:23:20;;;;;;;0.10;0.10;;;32.20;45.30;;;;;;5019743;28;20021;-76
2021/06/18 09:25:46;;;;;;;0.10;0.10;;;32.40;45.50;;;;;;5050353;28;20021;-76
2021/06/18 09:28:12;;;;;;;2.05;0.35;;;32.60;45.10;;;;;;5033996;28;20033;-75
2021/06/18 09:30:38;;;;;;;0.10;0.10;;;32.40;45.30;;;;;;5034677;28;20025;-75
2021/06/18 09:33:17;;;;;;;2.30;2.10;;;32.60;45.50;;;;;;5033903;28;20029;-76
2021/06/18 09:36:09;;;;;;;0.00;0.00;;;32.60;44.70;;;;;;5034695;28;20029;-76
2021/06/18 09:38:43;;;;;;;0.00;0.00;;;32.60;44.00;;;;;;5047971;28;20037;-75
2021/06/18 09:41:28;;;;;;;1.13;1.05;;;32.90;44.40;;;;;;5035062;28;20021;-75
2021/06/18 09:44:12;;;;;;;0.77;0.73;;;32.90;43.40;;;;;;5052940;28;20070;-76
2021/06/18 09:46:48;;;;;;;0.88;0.75;;;32.90;42.80;;;;;;5051784;28;20025;-76
2021/06/18 09:49:37;;;;;;;0.20;0.20;;;32.90;43.20;;;;;;5033411;28;20033;-75
2021/06/18 09:52:07;;;;;;;2.30;0.75;;;32.50;42.80;;;;;;5034319;28;20366;-75
2021/06/18 09:54:39;;;;;;;0.00;0.00;;;32.50;42.40;;;;;;5035602;28;20480;-75
2021/06/18 09:57:09;;;;;;;0.10;0.10;;;32.80;42.90;;;;;;5035486;28;20056;-74
2021/06/18 10:00:04;;;;;;;0.22;0.22;;;33.30;42.20;;;;;;5099275;22;20121;-80
2021/06/18 10:02:43;;;;;;;0.00;0.00;;;33.70;40.80;;;;;;4954308;28;20022;-76
2021/06/18 10:05:20;;;;;;;0.00;0.00;;;34.20;40.90;;;;;;4971374;28;20045;-77
2021/06/18 10:07:49;;;;;;;0.10;0.03;;;34.30;38.90;;;;;;4971165;28;20027;-77
2021/06/18 10:10:21;;;;;;;0.10;0.10;;;34.30;38.70;;;;;;4938078;28;20431;-76
2021/06/18 10:12:47;;;;;;;0.20;0.17;;;34.30;37.30;;;;;;4953964;28;20066;-77
2021/06/18 10:15:16;;;;;;;0.17;0.17;;;34.30;37.10;;;;;;4953988;28;20023;-77
2021/06/18 10:17:44;;;;;;;0.30;0.30;;;34.30;37.50;;;;;;4937610;28;20072;-77
2021/06/18 10:20:17;;;;;;;0.40;0.40;;;34.50;36.80;;;;;;4954071;28;20027;-76
2021/06/18 10:23:10;;;;;;;1.40;0.52;;;34.40;37.40;;;;;;4953204;28;20038;-77
2021/06/18 10:25:58;;;;;;;0.45;0.45;;;34.00;37.20;;;;;;4990133;28;20546;-77
2021/06/18 10:28:30;;;;;;;0.00;0.00;;;34.20;36.80;;;;;;5072386;28;20041;-75
2021/06/18 10:30:58;;;;;;;0.00;0.00;;;34.60;36.00;;;;;;5054662;28;20074;-75
2021/06/18 10:33:29;;;;;;;0.10;0.10;;;34.90;36.60;;;;;;5053797;28;20039;-75
2021/06/18 10:36:11;;;;;;;0.75;0.65;;;35.00;36.80;;;;;;5072430;28;20097;-75
2021/06/18 10:38:59;;;;;;;0.05;0.05;;;35.00;37.00;;;;;;5071528;28;20250;-76
2021/06/18 10:41:26;;;;;;;0.68;0.08;;;35.30;36.80;;;;;;4991335;28;20015;-75
2021/06/18 10:43:59;;;;;;;0.10;0.10;;;35.20;36.10;;;;;;4971023;28;20084;-75
2021/06/18 10:46:32;;;;;;;2.10;1.15;;;35.00;37.30;;;;;;4970600;28;20084;-76
2021/06/18 10:49:11;;;;;;;1.00;0.75;;;34.90;37.20;;;;;;4969889;28;20114;-76
2021/06/18 10:51:38;;;;;;;0.63;0.63;;;34.90;37.80;;;;;;4969971;28;20051;-76
2021/06/18 10:54:28;;;;;;;0.00;0.00;;;35.30;36.80;;;;;;4970705;28;20031;-76
2021/06/18 10:56:58;;;;;;;1.08;0.98;;;35.40;37.10;;;;;;4937155;28;20031;-75
2021/06/18 10:59:43;;;;;;;0.32;0.32;;;35.10;33.60;;;;;;4937262;28;20066;-76
2021/06/18 11:02:20;;;;;;;0.05;0.05;;;35.30;36.80;;;;;;4970638;28;20378;-75
2021/06/18 11:04:49;;;;;;;0.28;0.28;;;35.30;37.20;;;;;;4970563;28;20027;-75
2021/06/18 11:07:24;;;;;;;0.00;0.00;;;35.40;37.50;;;;;;4952845;28;20422;-75
2021/06/18 11:09:56;;;;;;;0.40;0.40;;;35.50;37.90;;;;;;4953076;28;20059;-75
2021/06/18 11:12:25;;;;;;;1.20;0.30;;;35.60;36.40;;;;;;4936982;28;20053;-75
2021/06/18 11:14:54;;;;;;;0.00;0.00;;;35.60;36.20;;;;;;4970565;28;20505;-75
2021/06/18 11:17:41;;;;;;;0.00;0.00;;;35.70;36.00;;;;;;4970122;28;20081;-75
2021/06/18 11:20:17;;;;;;;0.00;0.00;;;35.60;35.90;;;;;;4953020;28;20031;-75
2021/06/18 11:22:52;;;;;;;0.00;0.00;;;35.60;35.40;;;;;;4970454;28;20543;-75
2021/06/18 11:25:45;;;;;;;0.00;0.00;;;35.80;36.00;;;;;;4952981;28;20027;-76
2021/06/18 11:28:26;;;;;;;0.32;0.32;;;36.00;35.20;;;;;;4952491;28;20019;-76
2021/06/18 11:30:55;;;;;;;0.00;0.00;;;36.10;35.00;;;;;;4936719;28;20067;-76
2021/06/18 11:33:36;;;;;;;0.00;0.00;;;36.10;35.70;;;;;;4936895;28;20034;-76
2021/06/18 11:36:18;;;;;;;;;;;36.20;36.00;;;;;;4937243;28;20026;-76
2021/06/18 11:38:45;;;;;;;0.93;0.73;;;36.10;35.40;;;;;;4936386;28;20017;-76
2021/06/18 11:41:12;;;;;;;5.93;0.93;;;36.30;35.00;;;;;;4952471;28;20026;-76
2021/06/18 11:43:40;;;;;;;0.10;0.10;;;36.20;35.50;;;;;;4936144;28;20080;-76
2021/06/18 11:46:06;;;;;;;0.60;0.50;;;36.20;35.10;;;;;;4936898;28;20027;-75
2021/06/18 11:48:33;;;;;;;0.55;0.35;;;36.00;34.90;;;;;;4969813;28;20566;-76
2021/06/18 11:50:59;;;;;;;0.00;0.00;;;35.70;35.20;;;;;;4952096;28;20084;-75
2021/06/18 11:53:36;;;;;;;0.68;0.68;;;35.70;35.40;;;;;;4952604;28;20034;-76
2021/06/18 11:56:02;;;;;;;0.20;0.20;;;35.90;34.70;;;;;;4952482;28;20057;-75
2021/06/18 11:58:33;;;;;;;0.00;0.00;;;35.70;35.40;;;;;;4969570;28;20303;-76
2021/06/18 12:01:14;;;;;;;0.00;0.00;;;35.70;35.70;;;;;;4984323;28;20030;-79
2021/06/18 12:03:45;;;;;;;0.38;0.38;;;35.70;35.50;;;;;;4998748;28;20164;-80
2021/06/18 12:06:20;;;;;;;;;;;35.80;34.80;;;;;;4966219;28;20026;-80
2021/06/18 12:08:58;;;;;;;0.38;0.25;;;35.60;34.90;;;;;;4957523;28;19906;-81
2021/06/18 12:11:24;;;;;;;0.00;0.00;;;35.10;36.10;;;;;;4945744;28;20115;-80
2021/06/18 12:13:51;;;;;;;0.10;0.10;;;35.10;36.10;;;;;;4946268;28;20077;-78
2021/06/18 12:16:19;;;;;;;0.10;0.10;;;35.00;36.40;;;;;;4945934;28;20130;-79
2021/06/18 12:18:44;;;;;;;0.00;0.00;;;34.90;35.70;;;;;;4944534;28;20280;-79
2021/06/18 12:21:12;;;;;;;0.00;0.00;;;35.00;36.40;;;;;;4961930;28;20559;-79
2021/06/18 12:23:39;;;;;;;0.52;0.47;;;34.90;36.30;;;;;;4944957;28;20029;-79
2021/06/18 12:26:07;;;;;;;0.35;0.35;;;34.80;36.30;;;;;;4961343;28;20035;-79
2021/06/18 12:28:37;;;;;;;0.00;0.00;;;34.40;36.70;;;;;;4945291;28;20061;-79
2021/06/18 12:31:03;;;;;;;0.10;0.10;;;34.30;37.10;;;;;;4944995;28;20740;-79
2021/06/18 12:33:28;;;;;;;0.17;0.17;;;34.30;37.70;;;;;;4944538;28;20122;-79
2021/06/18 12:35:58;;;;;;;1.45;0.73;;;34.10;37.20;;;;;;4945871;28;20053;-79
2021/06/18 12:38:24;;;;;;;0.65;0.65;;;34.20;37.30;;;;;;4960304;28;20034;-80
2021/06/18 12:40:50;;;;;;;0.00;0.00;;;34.20;37.40;;;;;;4960707;28;20022;-80
2021/06/18 12:43:16;;;;;;;0.60;0.60;;;34.10;38.40;;;;;;4943596;28;20019;-79
2021/06/18 12:45:43;;;;;;;0.60;0.60;;;34.00;37.60;;;;;;4944882;28;20057;-79
2021/06/18 12:48:16;;;;;;;1.10;0.90;;;34.00;37.90;;;;;;4944218;28;20073;-79
2021/06/18 12:51:03;;;;;;;0.10;0.00;;;34.00;37.20;;;;;;4946086;28;20023;-79
2021/06/18 12:53:41;;;;;;;0.30;0.30;;;34.10;37.00;;;;;;4945683;28;20035;-79
2021/06/18 12:56:21;;;;;;;0.00;0.00;;;33.90;37.20;;;;;;4963346;28;20027;-80
2021/06/18 12:58:49;;;;;;;0.87;0.53;;;34.10;38.00;;;;;;4949087;28;20050;-79
2021/06/18 13:01:22;;;;;;;0.00;0.00;;;34.30;37.20;;;;;;4965488;28;20496;-79